Time;durP1;ratioP1;P1;durP2;ratioP2;P2;SDS_P1;SDS_P2;PMS_P1;PMS_P2;Temp;Humidity;BMP_temperature;BMP_pressure;BME280_temperature;BME280_humidity;BME280_pressure;Samples;Min_cycle;Max_cycle;Signal;HPM_P1;HPM_P2
2021/11/21 00:01:05;;;;;;;3.47;2.78;;;21.90;42.20;;;;;;5026675;28;20095;-56
2021/11/21 00:03:30;;;;;;;2.60;2.38;;;21.90;42.20;;;;;;5025814;28;20038;-54
2021/11/21 00:05:56;;;;;;;2.63;2.42;;;21.90;42.20;;;;;;5027247;28;20029;-55
2021/11/21 00:08:22;;;;;;;3.22;2.70;;;21.90;42.20;;;;;;5025231;28;20075;-57
2021/11/21 00:10:48;;;;;;;2.50;2.30;;;21.90;42.20;;;;;;5029603;28;20413;-52
2021/11/21 00:13:14;;;;;;;2.67;2.35;;;21.90;42.20;;;;;;5027587;28;20048;-59
2021/11/21 00:15:41;;;;;;;2.47;2.28;;;21.90;42.20;;;;;;5020019;28;20022;-55
2021/11/21 00:18:09;;;;;;;3.30;3.00;;;21.90;42.20;;;;;;5024995;28;20088;-57
2021/11/21 00:20:36;;;;;;;3.28;2.60;;;21.90;42.20;;;;;;5024580;28;20029;-55
2021/11/21 00:23:02;;;;;;;2.60;2.40;;;21.90;42.30;;;;;;5024202;28;20042;-59
2021/11/21 00:25:29;;;;;;;2.88;2.58;;;21.80;42.30;;;;;;5027597;28;20043;-58
2021/11/21 00:27:55;;;;;;;3.13;2.83;;;21.80;42.30;;;;;;5022908;28;20321;-58
2021/11/21 00:30:21;;;;;;;2.95;2.67;;;21.80;42.40;;;;;;5023630;28;20030;-55
2021/11/21 00:32:47;;;;;;;3.08;2.78;;;21.70;42.40;;;;;;5025148;28;20040;-61
2021/11/21 00:35:13;;;;;;;3.28;2.97;;;21.60;42.50;;;;;;5022249;28;20030;-55
2021/11/21 00:37:39;;;;;;;3.15;2.85;;;21.60;42.60;;;;;;5023341;28;20029;-56
2021/11/21 00:40:07;;;;;;;3.83;3.00;;;21.50;42.70;;;;;;5026817;28;20353;-57
2021/11/21 00:42:33;;;;;;;3.45;3.03;;;21.50;42.80;;;;;;5026241;28;20037;-60
2021/11/21 00:44:59;;;;;;;3.13;2.85;;;21.40;42.80;;;;;;5027219;28;20055;-60
2021/11/21 00:47:25;;;;;;;3.10;2.80;;;21.40;42.90;;;;;;5027408;28;20148;-56
2021/11/21 00:49:51;;;;;;;3.28;2.83;;;21.40;42.90;;;;;;5024259;28;20109;-55
2021/11/21 00:52:16;;;;;;;3.22;2.92;;;21.30;43.00;;;;;;5026450;28;20125;-58
2021/11/21 00:57:08;;;;;;;3.28;2.72;;;21.30;43.10;;;;;;5024295;28;20140;-57
2021/11/21 00:59:34;;;;;;;3.10;2.80;;;21.30;43.10;;;;;;5023835;28;20109;-60
2021/11/21 01:02:06;;;;;;;3.03;2.70;;;21.20;43.10;;;;;;5026866;28;20022;-54
2021/11/21 01:04:31;;;;;;;3.28;2.88;;;21.20;43.20;;;;;;5026683;28;20044;-60
2021/11/21 01:06:57;;;;;;;3.13;2.83;;;21.20;43.20;;;;;;5028375;28;20030;-55
2021/11/21 01:09:24;;;;;;;2.90;2.60;;;21.20;43.30;;;;;;5024726;28;20105;-58
2021/11/21 01:11:51;;;;;;;2.75;2.55;;;21.20;43.30;;;;;;5024460;28;20105;-58
2021/11/21 01:14:16;;;;;;;3.20;2.90;;;21.20;43.40;;;;;;5023360;28;20030;-58
2021/11/21 01:16:42;;;;;;;3.40;2.95;;;21.10;43.40;;;;;;5027345;28;20068;-55
2021/11/21 01:19:08;;;;;;;3.70;3.20;;;21.10;43.40;;;;;;5024500;28;20048;-54
2021/11/21 01:21:34;;;;;;;3.72;2.67;;;21.10;43.40;;;;;;5023901;28;20026;-56
2021/11/21 01:24:01;;;;;;;4.03;3.30;;;21.10;43.40;;;;;;5022385;28;20476;-56
2021/11/21 01:26:27;;;;;;;3.33;2.88;;;21.10;43.50;;;;;;5025164;28;20400;-58
2021/11/21 01:28:53;;;;;;;3.13;2.78;;;21.10;43.50;;;;;;5027528;28;20415;-56
2021/11/21 01:31:19;;;;;;;3.05;2.75;;;21.10;43.50;;;;;;5024257;28;20028;-55
2021/11/21 01:33:45;;;;;;;2.88;2.58;;;21.10;43.50;;;;;;5020399;28;20048;-58
2021/11/21 01:36:11;;;;;;;4.05;2.95;;;21.10;43.60;;;;;;5027455;28;20041;-55
2021/11/21 01:38:37;;;;;;;3.17;2.45;;;21.00;43.50;;;;;;5025720;28;20100;-56
2021/11/21 01:41:04;;;;;;;3.30;2.80;;;21.00;43.50;;;;;;5025570;28;20441;-55
2021/11/21 01:43:30;;;;;;;3.10;2.70;;;21.00;43.60;;;;;;5024924;28;20449;-57
2021/11/21 01:45:56;;;;;;;3.00;2.63;;;21.00;43.60;;;;;;5024182;28;20083;-61
2021/11/21 01:48:22;;;;;;;3.72;2.65;;;21.00;43.60;;;;;;5023790;28;20057;-57
2021/11/21 01:50:48;;;;;;;3.00;2.72;;;21.00;43.60;;;;;;5021286;28;20117;-57
2021/11/21 01:53:15;;;;;;;2.97;2.67;;;21.00;43.60;;;;;;5023684;28;20032;-56
2021/11/21 01:55:41;;;;;;;3.20;2.90;;;21.00;43.70;;;;;;5024845;28;20064;-56
2021/11/21 01:58:07;;;;;;;2.80;2.50;;;21.00;43.70;;;;;;5024291;28;20025;-62
2021/11/21 02:00:40;;;;;;;3.00;2.70;;;20.90;43.60;;;;;;5022828;28;20410;-55
2021/11/21 02:03:06;;;;;;;3.20;2.90;;;20.90;43.60;;;;;;5024328;28;20464;-55
2021/11/21 02:05:33;;;;;;;3.13;2.88;;;21.00;43.80;;;;;;5022155;28;20042;-57
2021/11/21 02:07:59;;;;;;;3.00;2.70;;;21.00;43.80;;;;;;5025737;28;20176;-54
2021/11/21 02:10:25;;;;;;;5.03;2.75;;;20.90;43.70;;;;;;5024571;28;20480;-58
2021/11/21 02:12:52;;;;;;;3.33;2.97;;;20.90;43.80;;;;;;5026684;28;20044;-59
2021/11/21 02:15:21;;;;;;;3.17;2.88;;;20.90;43.80;;;;;;5021712;28;20041;-57
2021/11/21 02:17:46;;;;;;;3.30;3.00;;;20.90;43.80;;;;;;5024103;28;20044;-61
2021/11/21 02:20:17;;;;;;;3.15;2.85;;;20.90;43.90;;;;;;5020088;28;20025;-54
2021/11/21 02:22:43;;;;;;;3.13;2.83;;;20.90;43.90;;;;;;5027307;28;20056;-56
2021/11/21 02:25:10;;;;;;;3.42;3.10;;;20.90;43.90;;;;;;5022583;28;20029;-55
2021/11/21 02:27:36;;;;;;;3.03;2.72;;;20.90;43.90;;;;;;5021789;28;20041;-58
2021/11/21 02:30:08;;;;;;;3.00;2.80;;;20.90;43.90;;;;;;5026644;28;20021;-57
2021/11/21 02:32:35;;;;;;;3.35;3.05;;;20.90;43.90;;;;;;5024400;28;20361;-57
2021/11/21 02:35:01;;;;;;;3.35;2.90;;;20.90;44.00;;;;;;5021856;28;20117;-60
2021/11/21 02:37:27;;;;;;;3.42;3.13;;;20.80;43.90;;;;;;5029010;28;20423;-57
2021/11/21 02:39:53;;;;;;;3.60;3.20;;;20.80;43.90;;;;;;5021442;28;20022;-54
2021/11/21 02:42:34;;;;;;;3.30;3.00;;;20.80;43.90;;;;;;5028787;28;20436;-55
2021/11/21 02:45:00;;;;;;;3.78;3.42;;;20.90;44.00;;;;;;5027392;28;20096;-58
2021/11/21 02:47:33;;;;;;;4.30;3.90;;;20.80;44.00;;;;;;5024961;28;20412;-56
2021/11/21 02:50:04;;;;;;;4.05;3.63;;;20.80;44.00;;;;;;5024217;28;20323;-56
2021/11/21 02:52:32;;;;;;;3.78;3.38;;;20.80;44.00;;;;;;5024951;28;20112;-57
2021/11/21 02:54:58;;;;;;;4.55;3.65;;;20.80;44.00;;;;;;5027427;28;20394;-57
2021/11/21 02:57:26;;;;;;;3.95;3.55;;;20.80;44.00;;;;;;5020509;28;20374;-56
2021/11/21 02:59:52;;;;;;;3.92;3.53;;;20.70;44.00;;;;;;5023790;28;20045;-55
2021/11/21 03:02:19;;;;;;;6.20;3.40;;;20.80;44.00;;;;;;5019224;28;20036;-59
2021/11/21 03:04:56;;;;;;;3.53;3.22;;;20.80;44.00;;;;;;5022654;28;20036;-58
2021/11/21 03:07:22;;;;;;;4.15;3.67;;;20.80;44.60;;;;;;5023904;28;20025;-57
2021/11/21 03:09:51;;;;;;;4.40;4.00;;;20.80;44.10;;;;;;5025655;28;20381;-57
2021/11/21 03:12:23;;;;;;;3.67;3.30;;;20.70;44.00;;;;;;5021163;28;20048;-57
2021/11/21 03:14:49;;;;;;;3.65;3.35;;;20.70;44.00;;;;;;5025467;28;20026;-60
2021/11/21 03:17:16;;;;;;;4.30;3.40;;;20.70;44.10;;;;;;5021440;28;20363;-57
2021/11/21 03:19:42;;;;;;;4.13;3.83;;;20.70;44.10;;;;;;5018628;28;20070;-53
2021/11/21 03:22:09;;;;;;;4.10;3.70;;;20.70;44.10;;;;;;5020397;28;20025;-58
2021/11/21 03:24:35;;;;;;;4.40;4.00;;;20.70;44.10;;;;;;5019687;28;20342;-57
2021/11/21 03:27:01;;;;;;;4.07;3.67;;;20.70;44.10;;;;;;5025121;28;20059;-59
2021/11/21 03:29:27;;;;;;;5.47;3.97;;;20.70;44.10;;;;;;5023252;28;20461;-57
2021/11/21 03:31:53;;;;;;;4.03;3.63;;;20.70;44.10;;;;;;5025299;28;20029;-55
2021/11/21 03:34:19;;;;;;;4.32;3.88;;;20.70;44.20;;;;;;5022687;28;20064;-57
2021/11/21 03:36:45;;;;;;;4.45;4.03;;;20.70;44.20;;;;;;5021321;28;20041;-54
2021/11/21 03:39:11;;;;;;;4.18;3.78;;;20.70;44.20;;;;;;5023817;28;20033;-55
2021/11/21 03:41:38;;;;;;;4.72;3.92;;;20.70;44.20;;;;;;5025063;28;20021;-55
2021/11/21 03:44:06;;;;;;;4.13;3.60;;;20.70;44.20;;;;;;5024648;28;20026;-58
2021/11/21 03:46:32;;;;;;;4.40;4.00;;;20.70;44.20;;;;;;5022455;28;20484;-56
2021/11/21 03:48:58;;;;;;;4.63;4.13;;;20.60;44.20;;;;;;5024945;28;20129;-56
2021/11/21 03:51:24;;;;;;;4.72;3.97;;;20.60;44.20;;;;;;5023343;28;20030;-57
2021/11/21 03:53:50;;;;;;;4.47;4.07;;;20.70;44.20;;;;;;5026831;28;20026;-58
2021/11/21 03:56:17;;;;;;;4.53;4.05;;;20.60;44.20;;;;;;5022724;28;20058;-57
2021/11/21 03:58:43;;;;;;;4.75;4.25;;;20.70;44.30;;;;;;5023411;28;20087;-54
2021/11/21 04:01:08;;;;;;;4.60;4.00;;;20.60;44.20;;;;;;5018836;28;20025;-55
2021/11/21 04:03:34;;;;;;;4.20;3.80;;;20.60;44.30;;;;;;5022446;28;20025;-54
2021/11/21 04:06:00;;;;;;;4.60;3.85;;;20.60;44.30;;;;;;5021278;28;20099;-59
2021/11/21 04:08:27;;;;;;;3.83;3.53;;;20.60;44.30;;;;;;5024073;28;20052;-57
2021/11/21 04:10:55;;;;;;;4.82;4.30;;;20.60;44.30;;;;;;5026726;28;20036;-58
2021/11/21 04:13:22;;;;;;;4.18;3.78;;;20.60;44.30;;;;;;5020066;28;20030;-56
2021/11/21 04:15:48;;;;;;;4.25;3.78;;;20.60;44.30;;;;;;5027598;28;20116;-58
2021/11/21 04:18:21;;;;;;;4.50;3.95;;;20.60;44.40;;;;;;5020757;28;20030;-56
2021/11/21 04:20:47;;;;;;;4.65;3.78;;;20.60;44.40;;;;;;5018223;28;20040;-55
2021/11/21 04:23:13;;;;;;;4.60;4.15;;;20.60;44.40;;;;;;5019304;28;20105;-57
2021/11/21 04:25:39;;;;;;;4.43;4.03;;;20.60;44.40;;;;;;5018175;28;20030;-58
2021/11/21 04:28:05;;;;;;;3.85;3.55;;;20.60;44.40;;;;;;5022545;28;20369;-55
2021/11/21 04:30:31;;;;;;;4.95;3.92;;;20.60;44.40;;;;;;5023173;28;20033;-58
2021/11/21 04:32:57;;;;;;;4.15;3.75;;;20.60;44.40;;;;;;5022097;28;20040;-52
2021/11/21 04:35:23;;;;;;;4.22;3.83;;;20.60;44.40;;;;;;5025639;28;20025;-54
2021/11/21 04:37:49;;;;;;;4.13;3.70;;;20.60;44.40;;;;;;5018964;28;20041;-57
2021/11/21 04:40:17;;;;;;;4.63;3.85;;;20.60;44.50;;;;;;5022148;28;20030;-56
2021/11/21 04:42:44;;;;;;;4.25;3.72;;;20.60;44.50;;;;;;5023718;28;20044;-55
2021/11/21 04:45:10;;;;;;;4.35;3.83;;;20.50;44.40;;;;;;5024496;28;20032;-59
2021/11/21 04:47:36;;;;;;;3.88;3.35;;;20.60;44.50;;;;;;5025018;28;20076;-56
2021/11/21 04:50:03;;;;;;;4.07;3.67;;;20.60;44.50;;;;;;5027351;28;20062;-54
2021/11/21 04:52:29;;;;;;;4.10;3.70;;;20.60;44.50;;;;;;5025985;28;20030;-55
2021/11/21 04:54:54;;;;;;;4.00;3.60;;;20.60;44.60;;;;;;5028238;28;20032;-58
2021/11/21 04:57:20;;;;;;;4.45;3.75;;;20.50;44.50;;;;;;5022302;28;20077;-56
2021/11/21 04:59:46;;;;;;;4.15;3.38;;;20.50;44.50;;;;;;5026242;28;20025;-59
2021/11/21 05:02:12;;;;;;;3.78;3.17;;;20.50;44.60;;;;;;5023486;28;20029;-54
2021/11/21 05:04:39;;;;;;;3.70;3.30;;;20.50;44.60;;;;;;5023911;28;20428;-58
2021/11/21 05:07:05;;;;;;;3.45;3.13;;;20.50;44.60;;;;;;5024593;28;20037;-55
2021/11/21 05:09:30;;;;;;;4.10;3.08;;;20.50;44.70;;;;;;5025931;28;20132;-58
2021/11/21 05:11:56;;;;;;;3.25;2.88;;;20.50;44.70;;;;;;5025430;28;20045;-50
2021/11/21 05:14:22;;;;;;;3.20;2.90;;;20.50;44.70;;;;;;5022604;28;20025;-56
2021/11/21 05:16:49;;;;;;;3.40;2.92;;;20.50;44.70;;;;;;5022873;28;20038;-54
2021/11/21 05:19:15;;;;;;;2.50;2.30;;;20.50;44.70;;;;;;5025038;28;20033;-56
2021/11/21 05:21:41;;;;;;;2.90;2.60;;;20.50;44.80;;;;;;5022739;28;20026;-58
2021/11/21 05:24:07;;;;;;;3.00;2.70;;;20.50;44.80;;;;;;5024032;28;20108;-55
2021/11/21 05:26:33;;;;;;;2.28;2.08;;;20.50;44.80;;;;;;5021318;28;20053;-55
2021/11/21 05:28:59;;;;;;;2.63;2.42;;;20.50;44.80;;;;;;5025518;28;20096;-55
2021/11/21 05:31:25;;;;;;;2.67;2.33;;;20.50;44.90;;;;;;5023823;28;20360;-57
2021/11/21 05:33:51;;;;;;;2.30;2.10;;;20.50;44.90;;;;;;5025322;28;20060;-58
2021/11/21 05:36:17;;;;;;;2.40;2.10;;;20.50;44.90;;;;;;5026119;28;20409;-58
2021/11/21 05:38:43;;;;;;;2.47;2.28;;;20.50;44.90;;;;;;5024613;28;20061;-55
2021/11/21 05:41:09;;;;;;;1.92;1.83;;;20.50;44.90;;;;;;5026331;28;20033;-58
2021/11/21 05:43:35;;;;;;;2.50;2.20;;;20.40;44.90;;;;;;5022371;28;20411;-58
2021/11/21 05:46:00;;;;;;;2.53;2.33;;;20.40;44.90;;;;;;5020678;28;20057;-59
2021/11/21 05:48:26;;;;;;;2.53;1.95;;;20.40;44.90;;;;;;5021703;28;20060;-56
2021/11/21 05:50:52;;;;;;;3.47;2.10;;;20.40;45.00;;;;;;5025452;28;20429;-55
2021/11/21 05:53:18;;;;;;;2.00;1.80;;;20.40;45.00;;;;;;5021847;28;20399;-59
2021/11/21 05:55:44;;;;;;;1.98;1.83;;;20.40;45.00;;;;;;5025181;28;20045;-55
2021/11/21 05:58:10;;;;;;;2.10;1.90;;;20.40;45.00;;;;;;5029366;28;20072;-53
2021/11/21 06:00:36;;;;;;;2.08;1.88;;;20.40;45.00;;;;;;5025911;28;20022;-57
2021/11/21 06:03:02;;;;;;;1.92;1.80;;;20.40;45.00;;;;;;5020106;28;20064;-57
2021/11/21 06:05:28;;;;;;;2.08;1.77;;;20.40;45.10;;;;;;5022428;28;20432;-58
2021/11/21 06:07:54;;;;;;;1.60;1.50;;;20.50;45.10;;;;;;5023335;28;20052;-60
2021/11/21 06:10:20;;;;;;;2.38;2.10;;;20.40;45.10;;;;;;5023276;28;20365;-53
2021/11/21 06:12:47;;;;;;;2.53;2.33;;;20.40;45.10;;;;;;5025793;28;20021;-57
2021/11/21 06:15:13;;;;;;;2.03;1.60;;;20.40;45.10;;;;;;5030757;28;20090;-60
2021/11/21 06:17:40;;;;;;;2.10;1.90;;;20.40;45.10;;;;;;5023703;28;20337;-60
2021/11/21 06:20:07;;;;;;;1.92;1.67;;;20.40;45.10;;;;;;5024138;28;20025;-57
2021/11/21 06:22:33;;;;;;;6.03;1.70;;;20.40;45.20;;;;;;5022576;28;20053;-58
2021/11/21 06:24:59;;;;;;;1.55;1.45;;;20.40;45.20;;;;;;5022943;28;20026;-57
2021/11/21 06:27:25;;;;;;;1.70;1.50;;;20.40;45.20;;;;;;5024363;28;20420;-55
2021/11/21 06:29:51;;;;;;;1.50;1.40;;;20.40;45.20;;;;;;5024793;28;20029;-59
2021/11/21 06:32:17;;;;;;;1.80;1.40;;;20.40;45.20;;;;;;5027170;28;20044;-57
2021/11/21 06:34:43;;;;;;;1.90;1.50;;;20.40;45.20;;;;;;5022616;28;20029;-57
2021/11/21 06:37:09;;;;;;;1.42;1.33;;;20.40;45.30;;;;;;5022188;28;20079;-57
2021/11/21 06:39:40;;;;;;;1.27;1.17;;;20.40;45.30;;;;;;5025647;28;20087;-52
2021/11/21 06:42:07;;;;;;;1.38;1.20;;;20.40;45.30;;;;;;5021616;28;20113;-58
2021/11/21 06:44:33;;;;;;;1.30;1.20;;;20.40;45.40;;;;;;5021426;28;20468;-55
2021/11/21 06:46:59;;;;;;;1.50;1.40;;;20.40;45.30;;;;;;5025483;28;20059;-60
2021/11/21 06:49:25;;;;;;;1.25;1.15;;;20.40;45.30;;;;;;5023556;28;20021;-59
2021/11/21 06:51:50;;;;;;;1.10;1.00;;;20.40;45.40;;;;;;5023021;28;20415;-59
2021/11/21 06:54:16;;;;;;;2.28;1.08;;;20.40;45.40;;;;;;5024123;28;20391;-56
2021/11/21 06:56:43;;;;;;;1.17;1.08;;;20.30;45.30;;;;;;5021691;28;20038;-58
2021/11/21 06:59:09;;;;;;;1.20;1.10;;;20.40;45.40;;;;;;5019729;28;20109;-57
2021/11/21 07:01:35;;;;;;;1.27;1.17;;;20.40;45.40;;;;;;5020854;28;20132;-56
2021/11/21 07:04:01;;;;;;;1.00;0.90;;;20.40;45.40;;;;;;5023557;28;20033;-54
2021/11/21 07:06:37;;;;;;;3.58;1.20;;;20.30;45.40;;;;;;5021486;28;20088;-55
2021/11/21 07:09:05;;;;;;;1.70;1.05;;;20.30;46.00;;;;;;5022940;28;20151;-55
2021/11/21 07:11:32;;;;;;;1.08;0.80;;;20.30;45.40;;;;;;5020796;28;20442;-58
2021/11/21 07:13:58;;;;;;;1.10;1.00;;;20.30;45.40;;;;;;5024740;28;20025;-56
2021/11/21 07:16:24;;;;;;;0.82;0.82;;;20.30;45.40;;;;;;5025799;28;20362;-55
2021/11/21 07:18:49;;;;;;;1.45;1.10;;;20.30;45.40;;;;;;5023226;28;20026;-57
2021/11/21 07:21:16;;;;;;;1.55;1.00;;;20.30;45.40;;;;;;5024005;28;20398;-57
2021/11/21 07:23:42;;;;;;;1.00;0.90;;;20.30;45.40;;;;;;5020242;28;20030;-55
2021/11/21 07:26:08;;;;;;;1.20;0.90;;;20.30;45.40;;;;;;5022000;28;20352;-56
2021/11/21 07:28:34;;;;;;;0.98;0.77;;;20.30;45.40;;;;;;5020342;28;20037;-56
2021/11/21 07:30:59;;;;;;;1.00;0.82;;;20.30;45.40;;;;;;5025541;28;20057;-58
2021/11/21 07:33:25;;;;;;;1.00;0.90;;;20.30;45.40;;;;;;5025087;28;20033;-58
2021/11/21 07:35:53;;;;;;;0.95;0.82;;;20.30;45.40;;;;;;5022831;28;20037;-57
2021/11/21 07:38:20;;;;;;;1.48;0.98;;;20.30;45.50;;;;;;5022170;28;20034;-56
2021/11/21 07:40:46;;;;;;;1.63;0.70;;;20.30;45.50;;;;;;5028113;28;20358;-57
2021/11/21 07:43:13;;;;;;;0.95;0.85;;;20.30;45.50;;;;;;5031575;28;20025;-56
2021/11/21 07:45:39;;;;;;;1.08;0.80;;;20.30;45.50;;;;;;5021730;28;20057;-55
2021/11/21 07:48:05;;;;;;;1.75;0.80;;;20.30;45.50;;;;;;5025468;28;20041;-53
2021/11/21 07:50:31;;;;;;;3.22;1.00;;;20.30;45.50;;;;;;5023129;28;20036;-58
2021/11/21 07:52:57;;;;;;;1.10;0.95;;;20.30;45.50;;;;;;5025802;28;20029;-59
2021/11/21 07:55:23;;;;;;;1.08;0.50;;;20.30;45.50;;;;;;5024275;28;20099;-60
2021/11/21 07:57:49;;;;;;;0.73;0.70;;;20.30;45.50;;;;;;5018026;28;20022;-56
2021/11/21 08:00:15;;;;;;;3.08;1.00;;;20.30;45.60;;;;;;5018868;28;20034;-58
2021/11/21 08:02:42;;;;;;;1.13;0.80;;;20.30;45.60;;;;;;5018336;28;20033;-57
2021/11/21 08:05:09;;;;;;;2.60;0.70;;;20.30;45.70;;;;;;5023294;28;20045;-54
2021/11/21 08:07:36;;;;;;;1.10;0.60;;;20.30;45.80;;;;;;5016048;28;20046;-55
2021/11/21 08:10:04;;;;;;;0.98;0.75;;;20.30;45.80;;;;;;5018002;28;21819;-59
2021/11/21 08:12:30;;;;;;;1.38;0.70;;;20.40;45.70;;;;;;5017103;28;20029;-53
2021/11/21 08:14:58;;;;;;;0.50;0.50;;;20.50;45.60;;;;;;5020784;28;20037;-56
2021/11/21 08:17:23;;;;;;;0.98;0.70;;;20.70;45.50;;;;;;5024918;28;20029;-59
2021/11/21 08:19:49;;;;;;;1.23;0.65;;;20.80;45.30;;;;;;5024146;28;20021;-56
2021/11/21 08:22:15;;;;;;;1.27;0.60;;;20.90;45.10;;;;;;5024238;28;20060;-59
2021/11/21 08:24:41;;;;;;;0.52;0.45;;;21.00;44.90;;;;;;5026291;28;20334;-59
2021/11/21 08:27:08;;;;;;;1.55;0.60;;;21.20;44.80;;;;;;5034981;28;20040;-57
2021/11/21 08:29:34;;;;;;;1.17;0.50;;;21.30;44.70;;;;;;5021818;28;20096;-58
2021/11/21 08:32:00;;;;;;;1.52;0.50;;;21.40;44.50;;;;;;5031794;28;20108;-56
2021/11/21 08:34:26;;;;;;;1.90;0.60;;;21.50;44.30;;;;;;5021959;28;20030;-55
2021/11/21 08:36:52;;;;;;;0.43;0.43;;;21.60;44.20;;;;;;5023775;28;20072;-57
2021/11/21 08:39:21;;;;;;;1.20;0.60;;;21.60;44.00;;;;;;5030849;28;20061;-54
2021/11/21 08:41:48;;;;;;;2.05;0.70;;;21.80;43.90;;;;;;5037329;28;20479;-54
2021/11/21 08:44:13;;;;;;;1.20;0.63;;;21.90;43.80;;;;;;5034904;28;20029;-53
2021/11/21 08:46:39;;;;;;;1.20;0.65;;;22.00;43.60;;;;;;5032481;28;20041;-53
2021/11/21 08:49:05;;;;;;;1.15;0.50;;;22.10;43.50;;;;;;5023770;28;20048;-60
2021/11/21 08:51:31;;;;;;;1.23;0.60;;;22.10;43.30;;;;;;5020164;28;20369;-57
2021/11/21 08:53:56;;;;;;;1.63;0.60;;;22.20;43.20;;;;;;5019254;28;20327;-56
2021/11/21 08:56:22;;;;;;;1.27;0.68;;;22.30;43.10;;;;;;5025428;28;20048;-54
2021/11/21 08:58:48;;;;;;;1.70;0.70;;;22.40;43.00;;;;;;5025181;28;20407;-55
2021/11/21 09:01:14;;;;;;;1.58;0.60;;;22.50;42.90;;;;;;5021141;28;20364;-60
2021/11/21 09:03:40;;;;;;;0.95;0.65;;;22.50;42.80;;;;;;5029584;28;20026;-56
2021/11/21 09:06:06;;;;;;;1.52;0.60;;;22.60;42.70;;;;;;5033819;28;20026;-58
2021/11/21 09:08:32;;;;;;;1.45;0.60;;;22.60;42.50;;;;;;5036422;28;20038;-57
2021/11/21 09:10:59;;;;;;;3.60;0.75;;;22.70;42.50;;;;;;5021463;28;20064;-57
2021/11/21 09:13:31;;;;;;;0.95;0.57;;;22.80;42.40;;;;;;5018341;28;20105;-58
2021/11/21 09:15:58;;;;;;;1.50;0.68;;;22.80;42.30;;;;;;5020139;28;20029;-56
2021/11/21 09:18:25;;;;;;;2.42;0.60;;;22.90;42.20;;;;;;5020665;28;20038;-58
2021/11/21 09:20:59;;;;;;;1.30;0.68;;;22.90;42.00;;;;;;5016577;28;20049;-56
2021/11/21 09:23:27;;;;;;;1.48;0.70;;;23.00;41.90;;;;;;5023000;28;20025;-57
2021/11/21 09:25:53;;;;;;;1.60;0.60;;;23.00;41.90;;;;;;5026278;28;20132;-58
2021/11/21 09:28:20;;;;;;;1.30;0.68;;;23.00;41.80;;;;;;5022079;28;20052;-53
2021/11/21 09:30:46;;;;;;;1.13;0.55;;;23.10;41.80;;;;;;5024044;28;20104;-61
2021/11/21 09:33:14;;;;;;;1.45;0.60;;;23.10;41.80;;;;;;5026872;28;20029;-61
2021/11/21 09:35:41;;;;;;;0.70;0.50;;;23.10;41.60;;;;;;5023363;28;20037;-47
2021/11/21 09:38:07;;;;;;;1.17;0.70;;;23.20;41.60;;;;;;5023571;28;20029;-45
2021/11/21 09:40:33;;;;;;;2.25;0.90;;;23.20;41.40;;;;;;5029058;28;20468;-56
2021/11/21 09:42:59;;;;;;;1.42;0.77;;;23.10;41.30;;;;;;5020733;28;20037;-57
2021/11/21 09:45:25;;;;;;;1.15;0.60;;;23.10;41.20;;;;;;5020533;28;20501;-57
2021/11/21 09:47:54;;;;;;;3.90;2.17;;;23.00;41.20;;;;;;5020529;28;20125;-56
2021/11/21 09:50:21;;;;;;;7.38;2.67;;;23.10;41.40;;;;;;5026061;28;20376;-53
2021/11/21 09:52:49;;;;;;;5.88;2.83;;;23.10;41.80;;;;;;5022206;28;20469;-52
2021/11/21 09:55:17;;;;;;;7.00;3.22;;;23.10;42.00;;;;;;5025339;28;20045;-60
2021/11/21 09:57:44;;;;;;;8.95;3.22;;;23.20;42.30;;;;;;5027997;28;20061;-59
2021/11/21 10:00:27;;;;;;;8.65;4.10;;;23.20;42.60;;;;;;5028077;28;20034;-62
2021/11/21 10:03:12;;;;;;;10.63;4.70;;;23.20;43.10;;;;;;5030051;28;20039;-56
2021/11/21 10:05:43;;;;;;;13.20;6.03;;;23.20;43.50;;;;;;5019941;28;20033;-53
2021/11/21 10:08:18;;;;;;;12.32;6.03;;;23.20;43.90;;;;;;5034234;28;20128;-55
2021/11/21 10:10:45;;;;;;;14.32;6.18;;;23.20;44.30;;;;;;5022634;28;20033;-56
2021/11/21 10:13:41;;;;;;;16.25;6.53;;;23.10;44.50;;;;;;5016109;28;20041;-53
2021/11/21 10:16:17;;;;;;;22.45;8.57;;;23.20;44.70;;;;;;5011594;28;20502;-49
2021/11/21 10:18:50;;;;;;;19.73;8.68;;;23.20;45.40;;;;;;5031592;28;20033;-55
2021/11/21 10:21:18;;;;;;;15.95;7.03;;;23.10;45.60;;;;;;5032845;28;20025;-55
2021/11/21 10:23:46;;;;;;;13.77;6.15;;;23.10;45.60;;;;;;5017288;28;20034;-56
2021/11/21 10:26:21;;;;;;;14.80;6.95;;;23.10;45.60;;;;;;5023831;28;20059;-54
2021/11/21 10:28:47;;;;;;;14.25;6.50;;;23.10;46.10;;;;;;5026629;28;20089;-57
2021/11/21 10:31:19;;;;;;;12.45;6.30;;;23.10;46.60;;;;;;5024178;28;20057;-58
2021/11/21 10:33:53;;;;;;;12.30;6.28;;;23.10;47.10;;;;;;5021652;28;20029;-59
2021/11/21 10:36:30;;;;;;;12.35;5.55;;;23.10;47.40;;;;;;5016048;28;20030;-53
2021/11/21 10:38:59;;;;;;;12.20;5.70;;;23.10;47.90;;;;;;5021228;28;20021;-60
2021/11/21 10:41:27;;;;;;;11.43;5.00;;;23.10;47.80;;;;;;5019006;28;20087;-52
2021/11/21 10:44:20;;;;;;;7.88;4.15;;;23.00;47.30;;;;;;5019013;28;20396;-56
2021/11/21 10:46:58;;;;;;;9.02;3.33;;;23.00;46.50;;;;;;5021003;28;20030;-55
2021/11/21 10:49:36;;;;;;;5.05;2.63;;;23.00;46.00;;;;;;5027221;28;20034;-58
2021/11/21 10:52:18;;;;;;;7.57;2.88;;;23.00;45.60;;;;;;5022452;28;20026;-51
2021/11/21 10:54:49;;;;;;;6.43;2.78;;;22.90;45.10;;;;;;5028356;28;20455;-51
2021/11/21 10:57:34;;;;;;;5.10;2.63;;;22.90;44.90;;;;;;5024357;28;20483;-50
2021/11/21 11:00:04;;;;;;;5.95;2.10;;;22.90;44.50;;;;;;5022074;28;20052;-46
2021/11/21 11:02:40;;;;;;;3.78;1.77;;;22.80;44.20;;;;;;5015232;28;20497;-53
2021/11/21 11:05:11;;;;;;;5.78;2.30;;;22.90;43.90;;;;;;5023867;28;20033;-54
2021/11/21 11:07:42;;;;;;;3.17;1.63;;;22.80;43.40;;;;;;5021838;28;20045;-55
2021/11/21 11:10:25;;;;;;;3.25;1.80;;;22.90;43.30;;;;;;5017876;28;20033;-48
2021/11/21 11:12:54;;;;;;;2.25;1.30;;;22.90;43.20;;;;;;5018576;28;20041;-50
2021/11/21 11:15:21;;;;;;;4.00;1.48;;;22.90;43.10;;;;;;5020956;28;20099;-52
2021/11/21 11:17:48;;;;;;;3.25;1.38;;;22.90;43.60;;;;;;5021756;28;20030;-57
2021/11/21 11:20:17;;;;;;;2.97;1.80;;;22.90;42.90;;;;;;5023648;28;20037;-55
2021/11/21 11:22:43;;;;;;;2.03;1.27;;;22.90;42.90;;;;;;5018797;28;20065;-58
2021/11/21 11:25:20;;;;;;;5.47;1.30;;;22.90;42.80;;;;;;5018929;28;20037;-50
2021/11/21 11:27:57;;;;;;;3.10;1.40;;;22.90;42.70;;;;;;5017076;28;20361;-53
2021/11/21 11:30:32;;;;;;;3.75;1.70;;;22.90;42.70;;;;;;5021949;28;20026;-55
2021/11/21 11:33:13;;;;;;;3.30;1.50;;;22.90;42.70;;;;;;5020661;28;20400;-53
2021/11/21 11:35:42;;;;;;;3.13;1.67;;;22.80;42.70;;;;;;5018380;28;20030;-60
2021/11/21 11:38:12;;;;;;;3.25;1.52;;;22.80;42.80;;;;;;5019702;28;20391;-51
2021/11/21 11:40:45;;;;;;;3.67;1.30;;;22.80;42.80;;;;;;5022730;28;20044;-56
2021/11/21 11:43:32;;;;;;;3.05;1.65;;;22.80;42.90;;;;;;5020468;28;20359;-52
2021/11/21 11:46:23;;;;;;;2.30;1.10;;;22.80;42.80;;;;;;5025792;28;20033;-55
2021/11/21 11:49:04;;;;;;;3.13;1.27;;;22.80;42.80;;;;;;5021880;28;20050;-50
2021/11/21 11:51:29;;;;;;;2.45;1.02;;;22.80;42.80;;;;;;5018234;28;20115;-54
2021/11/21 11:53:58;;;;;;;3.75;1.40;;;22.70;42.80;;;;;;5025559;28;20434;-54
2021/11/21 11:56:41;;;;;;;2.55;1.30;;;22.70;42.80;;;;;;5026711;28;20046;-55
2021/11/21 11:59:21;;;;;;;2.90;0.88;;;22.80;42.80;;;;;;5025027;28;20033;-54
2021/11/21 12:01:56;;;;;;;3.55;1.27;;;22.80;42.90;;;;;;5021294;28;20469;-52
2021/11/21 12:04:22;;;;;;;2.28;1.05;;;22.70;42.70;;;;;;5022647;28;20033;-55
2021/11/21 12:06:56;;;;;;;2.67;1.20;;;22.80;42.80;;;;;;5028751;28;20384;-50
2021/11/21 12:09:34;;;;;;;2.72;1.15;;;22.80;42.70;;;;;;5026690;28;20046;-52
2021/11/21 12:12:10;;;;;;;2.67;1.13;;;22.80;42.70;;;;;;5022435;28;20057;-52
2021/11/21 12:14:44;;;;;;;3.20;1.20;;;22.70;42.60;;;;;;5026457;28;20419;-49
2021/11/21 12:17:25;;;;;;;2.50;1.02;;;22.70;42.60;;;;;;5023496;28;20026;-52
2021/11/21 12:19:57;;;;;;;2.70;1.20;;;22.80;42.50;;;;;;5023612;28;20048;-52
2021/11/21 12:22:30;;;;;;;2.83;1.00;;;22.70;42.50;;;;;;5021111;28;20041;-52
2021/11/21 12:24:58;;;;;;;2.15;1.08;;;22.70;42.40;;;;;;5024685;28;20034;-55
2021/11/21 12:27:32;;;;;;;2.53;1.00;;;22.70;42.40;;;;;;5018696;28;20037;-54
2021/11/21 12:30:11;;;;;;;2.60;1.00;;;22.70;42.30;;;;;;5019920;28;20058;-52
2021/11/21 12:32:58;;;;;;;3.95;1.30;;;22.70;42.20;;;;;;5022477;28;20633;-52
2021/11/21 12:35:34;;;;;;;2.95;0.90;;;22.70;42.20;;;;;;5019187;28;20030;-55
2021/11/21 12:38:02;;;;;;;1.80;0.65;;;22.70;42.20;;;;;;5022868;28;20056;-61
2021/11/21 12:40:32;;;;;;;1.85;0.68;;;22.60;42.10;;;;;;5027633;28;20034;-56
2021/11/21 12:43:04;;;;;;;2.75;1.10;;;22.70;42.00;;;;;;5025212;28;20029;-56
2021/11/21 12:45:33;;;;;;;1.90;0.88;;;22.70;41.90;;;;;;5026005;28;20534;-56
2021/11/21 12:48:01;;;;;;;2.28;0.88;;;22.70;41.70;;;;;;5024951;28;20176;-53
2021/11/21 12:51:00;;;;;;;2.17;1.00;;;22.70;41.50;;;;;;5026081;28;20448;-52
2021/11/21 12:53:28;;;;;;;2.15;0.80;;;22.80;41.20;;;;;;5021996;28;20109;-52